Time,TemperatureF,DewpointF,PressureIn,WindDirection,WindDirectionDegrees,WindSpeedMPH,WindSpeedGustMPH,Humidity,HourlyPrecipIn,Conditions,Clouds,dailyrainin,SoftwareType,DateUTC
2013-03-21 00:07:00,19.8,16.8,29.76,West,270,2.7,-999.0,88,-99.99,,,0.00,Acu-Link.com,2013-03-21 04:07:00,
2013-03-21 00:22:00,19.8,16.0,29.76,West,270,2.2,-999.0,85,-99.99,,,0.00,Acu-Link.com,2013-03-21 04:22:00,
2013-03-21 00:38:00,19.4,15.6,29.76,West,270,2.2,-999.0,85,-99.99,,,0.00,Acu-Link.com,2013-03-21 04:38:00,
2013-03-21 00:53:00,18.7,15.5,29.76,SW,225,3.2,-999.0,87,-99.99,,,0.00,Acu-Link.com,2013-03-21 04:53:00,
2013-03-21 01:08:00,18.5,15.8,29.76,WSW,247,2.2,-999.0,89,-99.99,,,0.00,Acu-Link.com,2013-03-21 05:08:00,
2013-03-21 01:23:00,18.9,15.7,29.75,WSW,247,2.7,-999.0,87,-99.99,,,0.00,Acu-Link.com,2013-03-21 05:23:00,
2013-03-21 01:38:00,19.0,15.8,29.75,WNW,292,2.7,-999.0,87,-99.99,,,0.00,Acu-Link.com,2013-03-21 05:38:00,
2013-03-21 01:54:00,19.6,15.3,29.75,SW,225,2.2,-999.0,83,-99.99,,,0.00,Acu-Link.com,2013-03-21 05:54:00,
2013-03-21 02:09:00,18.9,15.4,29.75,WSW,247,2.2,-999.0,86,-99.99,,,0.00,Acu-Link.com,2013-03-21 06:09:00,
2013-03-21 02:24:00,18.0,15.1,29.74,WSW,247,1.7,-999.0,88,-99.99,,,0.00,Acu-Link.com,2013-03-21 06:24:00,
2013-03-21 02:40:00,17.8,15.4,29.75,WSW,247,1.7,-999.0,90,-99.99,,,0.00,Acu-Link.com,2013-03-21 06:40:00,
2013-03-21 02:55:00,19.0,16.3,29.75,WNW,292,2.2,-999.0,89,-99.99,,,0.00,Acu-Link.com,2013-03-21 06:55:00,
2013-03-21 03:10:00,19.2,16.5,29.74,SW,225,2.7,-999.0,89,-99.99,,,0.00,Acu-Link.com,2013-03-21 07:10:00,
2013-03-21 03:25:00,19.0,16.6,29.74,West,270,2.7,-999.0,90,-99.99,,,0.00,Acu-Link.com,2013-03-21 07:25:00,
2013-03-21 03:40:00,19.2,16.8,29.73,West,270,2.7,-999.0,90,-99.99,,,0.00,Acu-Link.com,2013-03-21 07:40:00,
2013-03-21 03:56:00,19.0,16.6,29.73,NW,315,1.7,-999.0,90,-99.99,,,0.00,Acu-Link.com,2013-03-21 07:56:00,
2013-03-21 04:41:00,18.5,16.3,29.72,WSW,247,2.2,-999.0,91,-99.99,,,0.00,Acu-Link.com,2013-03-21 08:41:00,
2013-03-21 04:56:00,18.0,16.1,29.71,West,270,1.7,-999.0,92,-99.99,,,0.00,Acu-Link.com,2013-03-21 08:56:00,
2013-03-21 05:12:00,17.2,15.3,29.71,West,270,2.2,-999.0,92,-99.99,,,0.00,Acu-Link.com,2013-03-21 09:12:00,
2013-03-21 05:27:00,17.6,15.7,29.72,SW,225,2.2,-999.0,92,-99.99,,,0.00,Acu-Link.com,2013-03-21 09:27:00,
2013-03-21 05:42:00,17.1,15.4,29.72,West,270,1.7,-999.0,93,-99.99,,,0.00,Acu-Link.com,2013-03-21 09:42:00,
2013-03-21 05:58:00,17.4,15.5,29.72,West,270,1.1,-999.0,92,-99.99,,,0.00,Acu-Link.com,2013-03-21 09:58:00,
2013-03-21 06:13:00,16.9,15.0,29.72,West,270,1.7,-999.0,92,-99.99,,,0.00,Acu-Link.com,2013-03-21 10:13:00,
2013-03-21 06:28:00,17.2,15.5,29.72,West,270,2.7,-999.0,93,-99.99,,,0.00,Acu-Link.com,2013-03-21 10:28:00,
2013-03-21 06:43:00,17.4,15.7,29.71,West,270,3.2,-999.0,93,-99.99,,,0.00,Acu-Link.com,2013-03-21 10:43:00,
2013-03-21 06:59:00,17.2,15.5,29.72,West,270,3.2,-999.0,93,-99.99,,,0.00,Acu-Link.com,2013-03-21 10:59:00,
2013-03-21 07:14:00,17.6,15.7,29.71,West,270,2.2,-999.0,92,-99.99,,,0.00,Acu-Link.com,2013-03-21 11:14:00,
2013-03-21 07:29:00,17.6,15.7,29.71,WNW,292,4.7,-999.0,92,-99.99,,,0.00,Acu-Link.com,2013-03-21 11:29:00,
2013-03-21 07:44:00,18.7,17.0,29.71,West,270,4.7,-999.0,93,-99.99,,,0.00,Acu-Link.com,2013-03-21 11:44:00,
2013-03-21 07:59:00,18.9,16.5,29.71,WNW,292,3.7,-999.0,90,-99.99,,,0.00,Acu-Link.com,2013-03-21 11:59:00,
2013-03-21 08:15:00,19.8,16.6,29.71,West,270,4.7,-999.0,87,-99.99,,,0.00,Acu-Link.com,2013-03-21 12:15:00,
2013-03-21 08:30:00,22.3,17.4,29.71,NW,315,6.3,-999.0,81,-99.99,,,0.00,Acu-Link.com,2013-03-21 12:30:00,
2013-03-21 08:45:00,23.4,17.3,29.71,WNW,292,5.8,-999.0,77,-99.99,,,0.00,Acu-Link.com,2013-03-21 12:45:00,
2013-03-21 09:00:00,23.5,15.5,29.70,SW,225,4.7,-999.0,71,-99.99,,,0.00,Acu-Link.com,2013-03-21 13:00:00,
2013-03-21 09:15:00,23.9,14.9,29.70,West,270,3.7,-999.0,68,-99.99,,,0.00,Acu-Link.com,2013-03-21 13:15:00,
2013-03-21 10:02:00,26.1,14.9,29.69,WNW,292,4.7,-999.0,62,-99.99,,,0.00,Acu-Link.com,2013-03-21 14:02:00,
2013-03-21 10:17:00,26.6,16.1,29.69,SW,225,3.7,-999.0,64,-99.99,,,0.00,Acu-Link.com,2013-03-21 14:17:00,
2013-03-21 10:32:00,26.8,15.6,29.70,WNW,292,9.9,-999.0,62,-99.99,,,0.00,Acu-Link.com,2013-03-21 14:32:00,
2013-03-21 10:47:00,27.5,14.3,29.70,West,270,8.3,-999.0,57,-99.99,,,0.00,Acu-Link.com,2013-03-21 14:47:00,
2013-03-21 11:02:00,28.2,15.3,29.70,WNW,292,7.3,-999.0,58,-99.99,,,0.00,Acu-Link.com,2013-03-21 15:02:00,
2013-03-21 11:17:00,27.3,14.1,29.69,West,270,9.4,-999.0,57,-99.99,,,0.00,Acu-Link.com,2013-03-21 15:17:00,
2013-03-21 11:32:00,28.8,15.5,29.69,SW,225,5.8,-999.0,57,-99.99,,,0.00,Acu-Link.com,2013-03-21 15:32:00,
2013-03-21 11:47:00,28.2,15.7,29.69,WNW,292,8.3,-999.0,59,-99.99,,,0.00,Acu-Link.com,2013-03-21 15:47:00,
2013-03-21 12:02:00,27.1,15.1,29.70,SSE,157,6.8,-999.0,60,-99.99,,,0.00,Acu-Link.com,2013-03-21 16:02:00,
2013-03-21 12:17:00,26.8,14.8,29.69,SSW,202,10.4,-999.0,60,-99.99,,,0.00,Acu-Link.com,2013-03-21 16:17:00,
2013-03-21 12:47:00,28.4,16.7,29.69,SSW,202,10.4,-999.0,61,-99.99,,,0.00,Acu-Link.com,2013-03-21 16:47:00,
2013-03-21 13:02:00,28.9,18.3,29.68,SW,225,7.3,-999.0,64,-99.99,,,0.00,Acu-Link.com,2013-03-21 17:02:00,
2013-03-21 13:17:00,28.9,18.6,29.68,SW,225,5.3,-999.0,65,-99.99,,,0.00,Acu-Link.com,2013-03-21 17:17:00,
2013-03-21 13:32:00,28.2,18.7,29.67,South,180,8.9,-999.0,67,-99.99,,,0.00,Acu-Link.com,2013-03-21 17:32:00,
2013-03-21 13:48:00,28.2,20.0,29.67,SSW,202,9.4,-999.0,71,-99.99,,,0.00,Acu-Link.com,2013-03-21 17:48:00,
2013-03-21 14:03:00,28.4,21.5,29.68,West,270,8.3,-999.0,75,-99.99,,,0.00,Acu-Link.com,2013-03-21 18:03:00,
2013-03-21 14:18:00,27.9,21.9,29.67,SSW,202,9.4,-999.0,78,-99.99,,,0.00,Acu-Link.com,2013-03-21 18:18:00,
2013-03-21 14:34:00,27.5,22.7,29.66,SW,225,8.3,-999.0,82,-99.99,,,0.00,Acu-Link.com,2013-03-21 18:34:00,
2013-03-21 14:49:00,28.2,23.4,29.66,WNW,292,9.4,-999.0,82,-99.99,,,0.00,Acu-Link.com,2013-03-21 18:49:00,
2013-03-21 15:04:00,27.9,22.8,29.66,West,270,8.3,-999.0,81,-99.99,,,0.00,Acu-Link.com,2013-03-21 19:04:00,
2013-03-21 15:19:00,28.4,23.6,29.66,West,270,5.8,-999.0,82,-99.99,,,0.00,Acu-Link.com,2013-03-21 19:19:00,
2013-03-21 15:38:00,27.7,24.9,29.66,SSW,202,10.9,-999.0,89,-99.99,,,0.00,Acu-Link.com,2013-03-21 19:38:00,
2013-03-21 15:53:00,27.5,24.4,29.65,SSW,202,7.3,-999.0,88,-99.99,,,0.00,Acu-Link.com,2013-03-21 19:53:00,
2013-03-21 16:09:00,28.4,24.8,29.65,SW,225,8.9,-999.0,86,-99.99,,,0.00,Acu-Link.com,2013-03-21 20:09:00,
2013-03-21 16:24:00,28.4,24.5,29.65,WSW,247,7.3,-999.0,85,-99.99,,,0.00,Acu-Link.com,2013-03-21 20:24:00,
2013-03-21 16:39:00,28.8,25.2,29.65,West,270,8.9,-999.0,86,-99.99,,,0.00,Acu-Link.com,2013-03-21 20:39:00,
2013-03-21 16:55:00,29.1,24.6,29.65,SW,225,7.8,-999.0,83,-99.99,,,0.00,Acu-Link.com,2013-03-21 20:55:00,
2013-03-21 17:10:00,30.0,25.5,29.65,WSW,247,8.3,-999.0,83,-99.99,,,0.00,Acu-Link.com,2013-03-21 21:10:00,
2013-03-21 17:25:00,29.3,25.4,29.65,SW,225,3.7,-999.0,85,-99.99,,,0.00,Acu-Link.com,2013-03-21 21:25:00,
2013-03-21 17:41:00,28.8,25.2,29.65,SSW,202,7.8,-999.0,86,-99.99,,,0.00,Acu-Link.com,2013-03-21 21:41:00,
2013-03-21 17:56:00,28.8,26.2,29.65,WSW,247,6.8,-999.0,90,-99.99,,,0.00,Acu-Link.com,2013-03-21 21:56:00,
2013-03-21 18:26:00,28.6,26.6,29.64,WNW,292,3.7,-999.0,92,-99.99,,,0.00,Acu-Link.com,2013-03-21 22:26:00,
2013-03-21 18:41:00,28.6,26.6,29.65,West,270,4.2,-999.0,92,-99.99,,,0.00,Acu-Link.com,2013-03-21 22:41:00,
2013-03-21 18:56:00,28.8,26.8,29.64,WNW,292,5.3,-999.0,92,-99.99,,,0.00,Acu-Link.com,2013-03-21 22:56:00,
2013-03-21 19:12:00,28.8,26.5,29.65,West,270,5.8,-999.0,91,-99.99,,,0.00,Acu-Link.com,2013-03-21 23:12:00,
2013-03-21 19:27:00,28.8,26.2,29.65,West,270,6.8,-999.0,90,-99.99,,,0.00,Acu-Link.com,2013-03-21 23:27:00,
2013-03-21 19:42:00,28.2,26.4,29.65,SW,225,5.8,-999.0,93,-99.99,,,0.00,Acu-Link.com,2013-03-21 23:42:00,
2013-03-21 19:58:00,28.2,25.9,29.65,West,270,3.2,-999.0,91,-99.99,,,0.00,Acu-Link.com,2013-03-21 23:58:00,
2013-03-21 20:13:00,28.0,26.5,29.66,WNW,292,8.3,-999.0,94,-99.99,,,0.00,Acu-Link.com,2013-03-22 00:13:00,
2013-03-21 20:28:00,27.3,26.3,29.66,NW,315,8.9,-999.0,96,-99.99,,,0.00,Acu-Link.com,2013-03-22 00:28:00,
2013-03-21 20:44:00,27.1,26.6,29.67,NW,315,8.3,-999.0,98,-99.99,,,0.00,Acu-Link.com,2013-03-22 00:44:00,
2013-03-21 20:59:00,27.0,26.5,29.67,NW,315,3.2,-999.0,98,-99.99,,,0.00,Acu-Link.com,2013-03-22 00:59:00,
2013-03-21 21:14:00,26.6,26.1,29.67,WNW,292,3.2,-999.0,98,-99.99,,,0.00,Acu-Link.com,2013-03-22 01:14:00,
2013-03-21 21:29:00,26.4,25.7,29.67,WNW,292,3.7,-999.0,97,-99.99,,,0.00,Acu-Link.com,2013-03-22 01:29:00,
2013-03-21 21:44:00,25.5,24.8,29.67,West,270,2.2,-999.0,97,-99.99,,,0.00,Acu-Link.com,2013-03-22 01:44:00,
2013-03-21 21:59:00,25.7,24.2,29.68,WNW,292,2.2,-999.0,94,-99.99,,,0.00,Acu-Link.com,2013-03-22 01:59:00,
2013-03-21 22:15:00,26.2,23.9,29.68,West,270,8.3,-999.0,91,-99.99,,,0.00,Acu-Link.com,2013-03-22 02:15:00,
2013-03-21 22:30:00,26.4,23.6,29.68,WNW,292,4.7,-999.0,89,-99.99,,,0.00,Acu-Link.com,2013-03-22 02:30:00,
2013-03-21 22:45:00,26.4,23.6,29.68,WSW,247,3.7,-999.0,89,-99.99,,,0.00,Acu-Link.com,2013-03-22 02:45:00,
2013-03-21 23:00:00,26.4,23.3,29.69,West,270,7.8,-999.0,88,-99.99,,,0.00,Acu-Link.com,2013-03-22 03:00:00,
2013-03-21 23:15:00,26.2,23.1,29.69,WNW,292,3.2,-999.0,88,-99.99,,,0.00,Acu-Link.com,2013-03-22 03:15:00,
2013-03-21 23:30:00,26.1,23.0,29.69,WSW,247,2.7,-999.0,88,-99.99,,,0.00,Acu-Link.com,2013-03-22 03:30:00,
2013-03-21 23:46:00,25.7,23.2,29.69,WNW,292,9.9,-999.0,90,-99.99,,,0.00,Acu-Link.com,2013-03-22 03:46:00,